createdAt,value
2017-09-23T00:01:57.656Z,61.82
2017-09-23T00:04:25.648Z,61.66
2017-09-23T00:06:53.854Z,61.97
2017-09-23T00:09:21.868Z,62.33
2017-09-23T00:11:49.621Z,62.79
2017-09-23T00:14:17.459Z,62.51
2017-09-23T00:16:45.283Z,62.31
2017-09-23T00:19:13.187Z,62.63
2017-09-23T00:21:41.870Z,62.48
2017-09-23T00:24:10.682Z,62.32
2017-09-23T00:26:38.688Z,62.43
2017-09-23T00:29:06.896Z,62.48
2017-09-23T00:31:34.462Z,62.27
2017-09-23T00:34:02.223Z,62.34
2017-09-23T00:36:29.827Z,62.57
2017-09-23T00:38:57.493Z,62.34
2017-09-23T00:41:25.056Z,62.11
2017-09-23T00:43:52.835Z,61.86
2017-09-23T00:46:20.802Z,62.31
2017-09-23T00:48:48.814Z,62.15
2017-09-23T00:51:16.639Z,61.76
2017-09-23T00:53:44.291Z,61.93
2017-09-23T00:56:11.829Z,62.38
2017-09-23T00:58:39.591Z,61.97
2017-09-23T01:01:07.186Z,62.13
2017-09-23T01:03:34.732Z,61.96
2017-09-23T01:06:02.275Z,61.83
2017-09-23T01:08:29.871Z,61.80
2017-09-23T01:10:58.962Z,61.63
2017-09-23T01:13:26.546Z,61.35
2017-09-23T01:15:54.168Z,61.40
2017-09-23T01:18:21.713Z,61.34
2017-09-23T01:20:49.257Z,61.03
2017-09-23T01:23:16.858Z,60.87
2017-09-23T01:25:44.675Z,60.75
2017-09-23T01:28:12.270Z,60.70
2017-09-23T01:30:39.865Z,60.70
2017-09-23T01:33:07.382Z,61.00
2017-09-23T01:35:34.890Z,60.52
2017-09-23T01:38:03.928Z,60.70
2017-09-23T01:40:32.867Z,61.07
2017-09-23T01:43:01.420Z,60.96
2017-09-23T01:45:29.042Z,61.06
2017-09-23T01:47:56.795Z,61.42
2017-09-23T01:50:24.356Z,61.13
2017-09-23T01:52:51.974Z,61.18
2017-09-23T01:55:19.822Z,61.31
2017-09-23T01:57:47.361Z,61.13
2017-09-23T02:00:15.888Z,61.12
2017-09-23T02:02:43.406Z,60.73
2017-09-23T02:05:12.013Z,60.52
2017-09-23T02:07:39.593Z,60.51
2017-09-23T02:10:07.128Z,60.40
2017-09-23T02:12:34.868Z,60.14
2017-09-23T02:15:02.436Z,60.55
2017-09-23T02:17:30.902Z,60.30
2017-09-23T02:19:58.537Z,60.09
2017-09-23T02:22:26.138Z,60.17
2017-09-23T02:24:53.881Z,60.17
2017-09-23T02:27:21.398Z,59.96
2017-09-23T02:29:49.134Z,59.74
2017-09-23T02:32:16.769Z,59.68
2017-09-23T02:34:44.528Z,59.53
2017-09-23T02:37:12.163Z,59.76
2017-09-23T02:39:39.758Z,59.63
2017-09-23T02:42:07.409Z,59.13
2017-09-23T02:44:35.300Z,58.78
2017-09-23T02:47:03.258Z,59.05
2017-09-23T02:49:31.083Z,58.99
2017-09-23T02:51:59.101Z,58.92
2017-09-23T02:54:26.981Z,59.65
2017-09-23T02:56:54.785Z,61.38
2017-09-23T02:59:22.551Z,62.89
2017-09-23T03:01:50.483Z,63.36
2017-09-23T03:04:18.146Z,63.50
2017-09-23T03:06:45.881Z,64.12
2017-09-23T03:09:13.946Z,64.03
2017-09-23T03:11:41.786Z,64.02
2017-09-23T03:14:09.529Z,63.84
2017-09-23T03:16:37.288Z,64.25
2017-09-23T03:19:05.921Z,61.99
2017-09-23T03:21:33.642Z,60.35
2017-09-23T03:24:01.354Z,59.97
2017-09-23T03:26:29.258Z,59.79
2017-09-23T03:28:56.791Z,59.96
2017-09-23T03:31:24.386Z,59.69
2017-09-23T03:33:51.903Z,59.63
2017-09-23T03:36:19.470Z,59.45
2017-09-23T03:38:47.064Z,59.67
2017-09-23T03:41:14.582Z,59.55
2017-09-23T03:43:42.098Z,59.33
2017-09-23T03:46:09.658Z,59.38
2017-09-23T03:48:37.187Z,59.48
2017-09-23T03:51:04.792Z,59.10
2017-09-23T03:53:32.403Z,59.74
2017-09-23T03:56:00.912Z,59.50
2017-09-23T03:58:28.747Z,59.49
2017-09-23T04:00:56.393Z,59.29
2017-09-23T04:03:23.921Z,59.49
2017-09-23T04:05:51.455Z,59.78
2017-09-23T04:08:19.025Z,59.53
2017-09-23T04:10:46.834Z,59.86
2017-09-23T04:13:14.624Z,59.74
2017-09-23T04:15:42.382Z,59.52
2017-09-23T04:18:10.203Z,59.23
2017-09-23T04:20:37.743Z,59.08
2017-09-23T04:23:05.327Z,58.87
2017-09-23T04:25:32.926Z,58.95
2017-09-23T04:28:01.154Z,58.62
2017-09-23T04:30:28.747Z,58.60
2017-09-23T04:32:56.399Z,58.54
2017-09-23T04:35:24.214Z,58.85
2017-09-23T04:37:51.823Z,59.00
2017-09-23T04:40:19.599Z,58.77
2017-09-23T04:42:47.459Z,58.45
2017-09-23T04:45:15.055Z,58.07
2017-09-23T04:47:42.574Z,58.56
2017-09-23T04:50:10.162Z,58.43
2017-09-23T04:52:37.737Z,58.28
2017-09-23T04:55:06.084Z,58.29
2017-09-23T04:57:33.720Z,58.62
2017-09-23T05:00:01.302Z,58.36
2017-09-23T05:02:29.833Z,58.52
2017-09-23T05:04:57.371Z,58.29
2017-09-23T05:07:24.981Z,58.67
2017-09-23T05:09:52.559Z,58.73
2017-09-23T05:12:20.078Z,58.49
2017-09-23T05:14:48.183Z,58.52
2017-09-23T05:17:15.778Z,58.67
2017-09-23T05:19:43.523Z,58.44
2017-09-23T05:22:11.054Z,58.25
2017-09-23T05:24:38.857Z,58.31
2017-09-23T05:27:06.522Z,58.19
2017-09-23T05:29:34.332Z,57.93
2017-09-23T05:32:01.959Z,57.60
2017-09-23T05:34:29.601Z,57.82
2017-09-23T05:36:57.360Z,57.36
2017-09-23T05:39:24.932Z,57.63
2017-09-23T05:41:52.470Z,57.22
2017-09-23T05:44:20.008Z,57.18
2017-09-23T05:46:47.596Z,57.26
2017-09-23T05:49:15.202Z,57.30
2017-09-23T05:51:42.844Z,57.17
2017-09-23T05:54:11.974Z,56.77
2017-09-23T05:56:39.612Z,56.89
2017-09-23T05:59:07.188Z,56.80
2017-09-23T06:01:34.743Z,56.82
2017-09-23T06:04:03.086Z,56.87
2017-09-23T06:06:31.126Z,56.70
2017-09-23T06:08:59.466Z,56.98
2017-09-23T06:11:36.611Z,57.22
2017-09-23T06:14:04.339Z,57.64
2017-09-23T06:16:32.545Z,56.70
2017-09-23T06:19:00.097Z,56.40
2017-09-23T06:21:27.737Z,56.52
2017-09-23T06:23:55.619Z,56.24
2017-09-23T06:26:23.230Z,55.89
2017-09-23T06:28:50.823Z,56.18
2017-09-23T06:31:19.325Z,55.90
2017-09-23T06:33:47.449Z,55.74
2017-09-23T06:36:15.816Z,55.95
2017-09-23T06:38:44.153Z,56.21
2017-09-23T06:41:11.782Z,55.96
2017-09-23T06:43:39.481Z,55.77
2017-09-23T06:46:07.155Z,55.27
2017-09-23T06:48:34.835Z,55.06
2017-09-23T06:51:02.588Z,55.16
2017-09-23T06:53:30.331Z,54.89
2017-09-23T06:55:58.030Z,54.64
2017-09-23T06:58:25.722Z,54.47
2017-09-23T07:00:53.765Z,54.21
2017-09-23T07:03:21.470Z,53.81
2017-09-23T07:05:49.240Z,53.38
2017-09-23T07:08:17.048Z,53.90
2017-09-23T07:10:44.788Z,53.12
2017-09-23T07:13:13.290Z,52.69
2017-09-23T07:15:41.025Z,52.61
2017-09-23T07:18:10.051Z,51.82
2017-09-23T07:20:37.762Z,52.16
2017-09-23T07:23:05.578Z,52.24
2017-09-23T07:25:33.229Z,52.33
2017-09-23T07:28:00.915Z,52.30
2017-09-23T07:30:28.525Z,52.22
2017-09-23T07:32:56.224Z,52.11
2017-09-23T07:35:24.367Z,51.95
2017-09-23T07:37:52.723Z,51.96
2017-09-23T07:40:21.329Z,52.02
2017-09-23T07:42:48.958Z,52.07
2017-09-23T07:45:17.464Z,52.33
2017-09-23T07:47:45.103Z,52.40
2017-09-23T07:50:13.697Z,52.44
2017-09-23T07:52:42.250Z,52.10
2017-09-23T07:55:10.571Z,51.42
2017-09-23T07:57:39.166Z,52.84
2017-09-23T08:00:08.120Z,51.04
2017-09-23T08:02:36.502Z,51.15
2017-09-23T08:05:04.958Z,50.44
2017-09-23T08:07:33.546Z,50.21
2017-09-23T08:10:02.391Z,50.64
2017-09-23T08:12:30.197Z,49.76
2017-09-23T08:14:59.651Z,49.90
2017-09-23T08:17:28.089Z,50.04
2017-09-23T08:19:55.742Z,51.02
2017-09-23T08:22:23.375Z,49.17
2017-09-23T08:24:51.538Z,48.38
2017-09-23T08:27:19.317Z,48.26
2017-09-23T08:29:47.579Z,48.19
2017-09-23T08:32:16.064Z,47.46
2017-09-23T08:34:44.591Z,46.21
2017-09-23T08:37:12.156Z,44.70
2017-09-23T08:39:42.694Z,44.84
2017-09-23T08:42:11.229Z,44.71
2017-09-23T08:44:39.086Z,45.31
2017-09-23T08:47:07.637Z,45.73
2017-09-23T08:49:36.381Z,46.38
2017-09-23T08:52:04.867Z,46.59
2017-09-23T08:54:33.914Z,46.09
2017-09-23T08:57:01.720Z,46.05
2017-09-23T08:59:29.367Z,46.34
2017-09-23T09:01:57.028Z,45.79
2017-09-23T09:04:24.758Z,45.48
2017-09-23T09:06:52.375Z,45.25
2017-09-23T09:09:19.989Z,45.82
2017-09-23T09:11:48.605Z,45.84
2017-09-23T09:14:16.204Z,45.88
2017-09-23T09:16:44.482Z,46.71
2017-09-23T09:19:13.362Z,46.14
2017-09-23T09:21:41.139Z,45.34
2017-09-23T09:24:08.718Z,45.08
2017-09-23T09:26:36.347Z,44.83
2017-09-23T09:29:04.047Z,44.42
2017-09-23T09:31:31.931Z,45.33
2017-09-23T09:33:59.531Z,45.29
2017-09-23T09:36:27.290Z,44.57
2017-09-23T09:38:55.866Z,44.16
2017-09-23T09:41:23.471Z,44.45
2017-09-23T09:43:51.104Z,44.44
2017-09-23T09:46:18.700Z,44.26
2017-09-23T09:48:47.427Z,43.60
2017-09-23T09:51:15.813Z,43.54
2017-09-23T09:53:45.131Z,43.92
2017-09-23T09:56:12.872Z,44.59
2017-09-23T09:58:40.471Z,44.71
2017-09-23T10:01:08.116Z,45.83
2017-09-23T10:03:36.646Z,44.87
2017-09-23T10:06:04.475Z,44.80
2017-09-23T10:08:32.283Z,44.59
2017-09-23T10:11:01.413Z,44.55
2017-09-23T10:13:38.970Z,43.55
2017-09-23T10:16:06.530Z,43.03
2017-09-23T10:18:35.444Z,42.69
2017-09-23T10:21:03.093Z,42.21
2017-09-23T10:23:30.859Z,41.85
2017-09-23T10:25:58.394Z,42.45
2017-09-23T10:28:26.972Z,41.69
2017-09-23T10:30:55.538Z,41.94
2017-09-23T10:33:25.482Z,42.66
2017-09-23T10:35:55.678Z,42.00
2017-09-23T10:38:23.488Z,42.29
2017-09-23T10:40:51.139Z,41.37
2017-09-23T10:43:18.799Z,41.45
2017-09-23T10:45:46.442Z,41.67
2017-09-23T10:48:14.075Z,42.16
2017-09-23T10:50:42.630Z,42.55
2017-09-23T10:53:12.134Z,42.60
2017-09-23T10:55:42.635Z,42.25
2017-09-23T10:58:12.930Z,42.67
2017-09-23T11:00:42.101Z,42.30
2017-09-23T11:03:12.603Z,41.47
2017-09-23T11:05:40.433Z,40.01
2017-09-23T11:08:08.061Z,39.42
2017-09-23T11:10:35.839Z,39.53
2017-09-23T11:13:03.548Z,40.63
2017-09-23T11:15:31.651Z,40.82
2017-09-23T11:17:59.239Z,40.83
2017-09-23T11:20:27.086Z,39.19
2017-09-23T11:22:54.836Z,39.46
2017-09-23T11:25:23.227Z,38.24
2017-09-23T11:27:52.210Z,37.87
2017-09-23T11:30:23.110Z,36.77
2017-09-23T11:32:51.136Z,35.73
2017-09-23T11:35:19.439Z,35.31
2017-09-23T11:37:47.060Z,33.91
2017-09-23T11:40:15.684Z,34.22
2017-09-23T11:42:43.419Z,34.92
2017-09-23T11:45:11.093Z,34.76
2017-09-23T11:47:39.723Z,35.38
2017-09-23T11:50:13.711Z,36.12
2017-09-23T11:52:41.786Z,35.32
2017-09-23T11:55:10.443Z,34.71
2017-09-23T11:57:39.463Z,34.61
2017-09-23T12:00:27.999Z,33.51
2017-09-23T12:02:55.797Z,33.33
2017-09-23T12:05:24.145Z,34.45
2017-09-23T12:07:51.821Z,34.58
2017-09-23T12:10:19.460Z,34.19
2017-09-23T12:12:47.089Z,34.14
2017-09-23T12:15:14.776Z,34.25
2017-09-23T12:17:42.343Z,34.58
2017-09-23T12:20:10.856Z,34.57
2017-09-23T12:22:38.954Z,34.14
2017-09-23T12:25:07.330Z,34.12
2017-09-23T12:27:36.541Z,34.24
2017-09-23T12:30:07.817Z,33.82
2017-09-23T12:32:35.367Z,33.08
2017-09-23T12:35:03.168Z,33.52
2017-09-23T12:37:34.814Z,34.28
2017-09-23T12:40:02.659Z,34.23
2017-09-23T12:42:30.608Z,34.06
2017-09-23T12:44:58.852Z,33.62
2017-09-23T12:47:26.579Z,34.32
2017-09-23T12:49:54.212Z,34.35
2017-09-23T12:52:21.807Z,33.38
2017-09-23T12:54:49.597Z,33.44
2017-09-23T12:57:17.587Z,33.71
2017-09-23T12:59:46.115Z,33.68
2017-09-23T13:02:13.771Z,33.64
2017-09-23T13:04:41.603Z,33.70
2017-09-23T13:07:10.053Z,33.17
2017-09-23T13:09:38.495Z,32.40
2017-09-23T13:12:07.170Z,32.21
2017-09-23T13:14:35.653Z,32.49
2017-09-23T13:17:03.293Z,32.98
2017-09-23T13:19:31.128Z,32.25
2017-09-23T13:21:58.686Z,32.48
2017-09-23T13:24:26.833Z,32.21
2017-09-23T13:26:54.393Z,31.82
2017-09-23T13:29:22.020Z,31.89
2017-09-23T13:31:49.605Z,31.20
2017-09-23T13:34:18.672Z,32.19
2017-09-23T13:36:47.112Z,31.79
2017-09-23T13:39:40.085Z,32.38
2017-09-23T13:42:07.660Z,33.34
2017-09-23T13:44:35.228Z,33.45
2017-09-23T13:47:02.806Z,33.44
2017-09-23T13:49:30.645Z,33.60
2017-09-23T13:51:58.307Z,33.55
2017-09-23T13:54:25.883Z,33.92
2017-09-23T13:56:54.331Z,34.42
2017-09-23T13:59:21.874Z,34.24
2017-09-23T14:01:49.468Z,34.71
2017-09-23T14:04:17.195Z,34.97
2017-09-23T14:06:51.826Z,35.00
2017-09-23T14:09:20.416Z,34.95
2017-09-23T14:11:49.464Z,35.21
2017-09-23T14:14:19.834Z,35.19
2017-09-23T14:16:50.188Z,35.33
2017-09-23T14:19:19.752Z,35.58
2017-09-23T14:21:50.428Z,35.34
2017-09-23T14:24:20.610Z,35.24
2017-09-23T14:26:48.236Z,35.34
2017-09-23T14:29:16.503Z,35.46
2017-09-23T14:31:45.701Z,35.27
2017-09-23T14:34:15.081Z,35.34
2017-09-23T14:36:43.379Z,35.72
2017-09-23T14:39:16.545Z,34.99
2017-09-23T14:41:45.946Z,35.77
2017-09-23T14:44:15.633Z,35.77
2017-09-23T14:46:43.348Z,35.67
2017-09-23T14:49:10.958Z,35.68
2017-09-23T14:51:38.555Z,35.92
2017-09-23T14:54:06.107Z,36.40
2017-09-23T14:56:33.652Z,36.50
2017-09-23T14:59:01.582Z,36.90
2017-09-23T15:01:29.300Z,37.16
2017-09-23T15:03:57.376Z,36.50
2017-09-23T15:06:25.547Z,35.86
2017-09-23T15:08:53.368Z,36.12
2017-09-23T15:11:23.345Z,36.01
2017-09-23T15:13:52.802Z,36.28
2017-09-23T15:16:21.560Z,36.41
2017-09-23T15:18:49.333Z,36.92
2017-09-23T15:21:16.889Z,37.08
2017-09-23T15:23:47.051Z,37.28
2017-09-23T15:26:15.257Z,37.41
2017-09-23T15:28:50.497Z,37.62
2017-09-23T15:34:30.331Z,37.86
2017-09-23T15:37:05.244Z,38.15
2017-09-23T15:39:34.130Z,38.18
2017-09-23T15:42:02.411Z,38.36
2017-09-23T15:44:30.063Z,38.33
2017-09-23T15:49:36.292Z,39.24
2017-09-23T15:52:08.669Z,39.42
2017-09-23T15:54:45.744Z,39.41
2017-09-23T15:57:14.408Z,39.90
2017-09-23T15:59:42.012Z,39.90
2017-09-23T16:02:20.218Z,40.14
2017-09-23T16:04:48.623Z,40.23
2017-09-23T16:07:17.174Z,40.27
2017-09-23T16:09:50.698Z,40.60
2017-09-23T16:12:18.412Z,40.53
2017-09-23T16:14:46.918Z,40.84
2017-09-23T16:17:21.438Z,40.89
2017-09-23T16:19:49.565Z,40.82
2017-09-23T16:22:18.413Z,40.85
2017-09-23T16:24:46.934Z,40.96
2017-09-23T16:27:15.167Z,41.05
2017-09-23T16:29:43.012Z,41.29
2017-09-23T16:32:10.639Z,41.68
2017-09-23T16:34:40.472Z,42.06
2017-09-23T16:37:09.170Z,42.43
2017-09-23T16:39:37.560Z,42.61
2017-09-23T16:42:06.214Z,42.65
2017-09-23T16:44:33.755Z,42.92
2017-09-23T16:47:01.443Z,42.98
2017-09-23T16:49:28.975Z,43.11
2017-09-23T16:51:56.657Z,43.17
2017-09-23T16:54:24.507Z,43.22
2017-09-23T16:56:52.604Z,43.25
2017-09-23T16:59:20.322Z,43.38
2017-09-23T17:01:48.555Z,43.45
2017-09-23T17:04:16.194Z,43.59
2017-09-23T17:06:43.754Z,44.34
2017-09-23T17:09:11.331Z,43.46
2017-09-23T17:11:39.091Z,43.81
2017-09-23T17:14:09.683Z,43.64
2017-09-23T17:16:40.301Z,43.95
2017-09-23T17:19:09.549Z,43.83
2017-09-23T17:21:37.339Z,44.23
2017-09-23T17:24:05.897Z,44.42
2017-09-23T17:26:33.551Z,44.75
2017-09-23T17:29:01.133Z,44.87
2017-09-23T17:31:28.732Z,44.62
2017-09-23T17:34:01.226Z,44.92
2017-09-23T17:36:28.867Z,45.17
2017-09-23T17:38:56.652Z,45.27
2017-09-23T17:41:24.463Z,45.31
2017-09-23T17:43:55.814Z,45.75
2017-09-23T17:46:31.320Z,45.70
2017-09-23T17:49:14.253Z,46.28
2017-09-23T17:52:07.666Z,45.65
2017-09-23T17:57:31.534Z,45.77
2017-09-23T18:00:13.408Z,45.86
2017-09-23T18:02:41.015Z,45.73
2017-09-23T18:05:08.603Z,45.95
2017-09-23T18:07:36.344Z,46.29
2017-09-23T18:10:03.988Z,46.61
2017-09-23T18:12:31.606Z,46.65
2017-09-23T18:15:01.755Z,46.66
2017-09-23T18:17:29.918Z,46.90
2017-09-23T18:19:59.958Z,46.55
2017-09-23T18:22:27.542Z,46.66
2017-09-23T18:24:56.236Z,46.74
2017-09-23T18:27:24.834Z,47.06
2017-09-23T18:29:52.715Z,46.98
2017-09-23T18:32:20.480Z,47.09
2017-09-23T18:34:48.896Z,47.05
2017-09-23T18:37:17.437Z,46.88
2017-09-23T18:39:48.054Z,47.07
2017-09-23T18:42:15.807Z,46.78
2017-09-23T18:44:45.767Z,47.63
2017-09-23T18:47:13.387Z,48.58
2017-09-23T18:49:40.980Z,48.63
2017-09-23T18:52:08.517Z,48.77
2017-09-23T18:54:39.754Z,48.85
2017-09-23T18:57:11.705Z,49.28
2017-09-23T18:59:42.114Z,48.91
2017-09-23T19:02:14.551Z,49.22
2017-09-23T19:04:43.061Z,49.22
2017-09-23T19:07:10.792Z,49.57
2017-09-23T19:09:39.690Z,49.06
2017-09-23T19:12:07.245Z,49.15
2017-09-23T19:14:35.867Z,49.26
2017-09-23T19:17:04.108Z,49.63
2017-09-23T19:19:31.873Z,49.59
2017-09-23T19:21:59.433Z,49.94
2017-09-23T19:24:27.064Z,50.53
2017-09-23T19:26:56.862Z,49.86
2017-09-23T19:29:24.406Z,49.62
2017-09-23T19:31:53.025Z,49.46
2017-09-23T19:34:21.371Z,49.30
2017-09-23T19:36:50.527Z,49.37
2017-09-23T19:39:20.661Z,50.14
2017-09-23T19:41:49.492Z,50.34
2017-09-23T19:44:18.646Z,50.27
2017-09-23T19:46:47.194Z,48.96
2017-09-23T19:49:14.986Z,49.17
2017-09-23T19:51:45.743Z,49.80
2017-09-23T19:54:20.145Z,50.01
2017-09-23T19:56:50.314Z,50.57
2017-09-23T19:59:22.663Z,50.94
2017-09-23T20:01:50.704Z,51.59
2017-09-23T20:04:18.291Z,51.50
2017-09-23T20:06:45.890Z,51.04
2017-09-23T20:09:14.505Z,51.17
2017-09-23T20:11:42.043Z,51.30
2017-09-23T20:14:09.878Z,51.57
2017-09-23T20:16:38.617Z,51.77
2017-09-23T20:19:09.481Z,52.21
2017-09-23T20:21:40.980Z,51.92
2017-09-23T20:24:09.312Z,52.48
2017-09-23T20:29:18.247Z,51.70
2017-09-23T20:31:48.240Z,52.01
2017-09-23T20:34:18.010Z,52.11
2017-09-23T20:36:46.070Z,52.19
2017-09-23T20:39:14.118Z,51.67
2017-09-23T20:41:42.382Z,52.36
2017-09-23T20:44:11.607Z,52.27
2017-09-23T20:46:39.674Z,52.15
2017-09-23T20:49:08.361Z,52.62
2017-09-23T20:51:36.586Z,53.22
2017-09-23T20:54:04.631Z,53.78
2017-09-23T20:56:37.318Z,54.05
2017-09-23T20:59:09.501Z,54.04
